createdAt,value
2023-04-12T00:00:52.178Z,7.28
2023-04-12T00:01:52.658Z,7.23
2023-04-12T00:02:53.871Z,7.25
2023-04-12T00:03:54.109Z,7.26
2023-04-12T00:04:54.814Z,7.15
2023-04-12T00:05:55.689Z,7.26
2023-04-12T00:06:56.390Z,7.19
2023-04-12T00:07:57.119Z,7.25
2023-04-12T00:08:58.140Z,7.25
2023-04-12T00:09:58.839Z,7.26
2023-04-12T00:10:59.849Z,7.25
2023-04-12T00:12:00.758Z,7.21
2023-04-12T00:13:01.231Z,7.23
2023-04-12T00:14:01.575Z,7.21
2023-04-12T00:15:02.491Z,7.19
2023-04-12T00:16:02.836Z,7.26
2023-04-12T00:17:03.468Z,7.23
2023-04-12T00:18:04.383Z,7.26
2023-04-12T00:19:04.309Z,7.23
2023-04-12T00:20:05.017Z,7.25
2023-04-12T00:21:05.394Z,7.21
2023-04-12T00:22:06.070Z,7.21
2023-04-12T00:23:07.228Z,7.21
2023-04-12T00:24:07.930Z,7.22
2023-04-12T00:25:08.614Z,7.22
2023-04-12T00:26:09.186Z,7.22
2023-04-12T00:27:09.955Z,7.18
2023-04-12T00:28:10.071Z,7.28
2023-04-12T00:29:10.576Z,7.32
2023-04-12T00:30:10.354Z,7.28
2023-04-12T00:31:10.934Z,7.22
2023-04-12T00:32:11.616Z,7.29
2023-04-12T00:33:12.250Z,7.36
2023-04-12T00:34:12.954Z,7.28
2023-04-12T00:35:13.292Z,7.28
2023-04-12T00:36:14.130Z,7.31
2023-04-12T00:37:14.730Z,7.33
2023-04-12T00:38:15.893Z,7.31
2023-04-12T00:39:16.208Z,7.21
2023-04-12T00:40:16.788Z,7.19
2023-04-12T00:41:17.227Z,7.25
2023-04-12T00:42:17.704Z,7.25
2023-04-12T00:43:18.216Z,7.22
2023-04-12T00:44:18.814Z,7.36
2023-04-12T00:45:18.629Z,7.22
2023-04-12T00:46:19.547Z,7.36
2023-04-12T00:47:19.372Z,7.32
2023-04-12T00:48:20.415Z,7.28
2023-04-12T00:49:20.726Z,7.25
2023-04-12T00:50:21.450Z,7.25
2023-04-12T00:51:21.669Z,7.31
2023-04-12T00:52:22.210Z,7.32
2023-04-12T00:53:22.764Z,7.23
2023-04-12T00:54:23.465Z,7.23
2023-04-12T00:55:24.223Z,7.29
2023-04-12T00:56:24.960Z,7.28
2023-04-12T00:57:25.284Z,7.22
2023-04-12T00:58:25.992Z,7.21
2023-04-12T00:59:26.677Z,7.22
2023-04-12T01:00:27.184Z,7.23
2023-04-12T01:01:27.573Z,7.22
2023-04-12T01:02:29.069Z,7.25
2023-04-12T01:03:30.176Z,7.25
2023-04-12T01:04:30.014Z,7.25
2023-04-12T01:05:30.741Z,7.25
2023-04-12T01:06:31.257Z,7.19
2023-04-12T01:07:31.545Z,7.26
2023-04-12T01:08:32.132Z,7.31
2023-04-12T01:09:32.847Z,7.22
2023-04-12T01:10:32.748Z,7.25
2023-04-12T01:11:33.378Z,7.31
2023-04-12T01:12:33.940Z,7.23
2023-04-12T01:13:34.259Z,7.32
2023-04-12T01:14:34.975Z,7.23
2023-04-12T01:15:35.699Z,7.29
2023-04-12T01:16:36.403Z,7.28
2023-04-12T01:17:36.622Z,7.28
2023-04-12T01:18:37.615Z,7.26
2023-04-12T01:19:38.271Z,7.23
2023-04-12T01:20:39.015Z,7.26
2023-04-12T01:21:39.413Z,7.25
2023-04-12T01:22:40.105Z,7.25
2023-04-12T01:23:40.848Z,7.26
2023-04-12T01:24:41.382Z,7.28
2023-04-12T01:25:42.115Z,7.22
2023-04-12T01:26:42.743Z,7.32
2023-04-12T01:27:43.650Z,7.26
2023-04-12T01:28:44.410Z,7.31
2023-04-12T01:29:45.299Z,7.25
2023-04-12T01:30:45.763Z,7.23
2023-04-12T01:31:47.385Z,7.19
2023-04-12T01:32:47.398Z,7.26
2023-04-12T01:33:47.468Z,7.22
2023-04-12T01:34:48.291Z,7.18
2023-04-12T01:35:49.373Z,7.25
2023-04-12T01:36:49.565Z,7.23
2023-04-12T01:37:49.859Z,7.26
2023-04-12T01:38:50.726Z,7.23
2023-04-12T01:39:51.865Z,7.25
2023-04-12T01:40:51.773Z,7.23
2023-04-12T01:41:52.514Z,7.23
2023-04-12T01:42:52.607Z,7.26
2023-04-12T01:43:53.903Z,7.32
2023-04-12T01:44:54.760Z,7.31
2023-04-12T01:45:55.696Z,7.33
2023-04-12T01:46:55.718Z,7.29
2023-04-12T01:47:56.404Z,7.36
2023-04-12T01:48:57.513Z,7.31
2023-04-12T01:49:58.193Z,7.37
2023-04-12T01:50:58.133Z,7.33
2023-04-12T01:51:58.741Z,7.39
2023-04-12T01:52:59.524Z,7.37
2023-04-12T01:54:00.424Z,7.39
2023-04-12T01:55:00.959Z,7.28
2023-04-12T01:56:01.223Z,7.25
2023-04-12T01:57:01.732Z,7.26
2023-04-12T01:58:02.345Z,7.26
2023-04-12T01:59:02.900Z,7.25
2023-04-12T02:00:03.408Z,7.25
2023-04-12T02:01:04.083Z,7.21
2023-04-12T02:02:04.835Z,7.22
2023-04-12T02:03:05.841Z,7.23
2023-04-12T02:04:06.869Z,7.14
2023-04-12T02:06:06.503Z,7.19
2023-04-12T02:07:07.048Z,7.22
2023-04-12T02:08:07.812Z,7.18
2023-04-12T02:09:08.750Z,7.19
2023-04-12T02:10:09.295Z,7.15
2023-04-12T02:11:10.191Z,7.14
2023-04-12T02:12:10.566Z,7.18
2023-04-12T02:13:11.053Z,7.11
2023-04-12T02:14:11.528Z,7.07
2023-04-12T02:15:12.251Z,6.96
2023-04-12T02:16:12.680Z,7.03
2023-04-12T02:17:13.718Z,6.92
2023-04-12T02:18:14.516Z,6.83
2023-04-12T02:19:15.239Z,6.85
2023-04-12T02:20:15.960Z,6.72
2023-04-12T02:21:16.293Z,6.67
2023-04-12T02:22:16.708Z,6.67
2023-04-12T02:23:17.430Z,6.62
2023-04-12T02:24:17.760Z,6.64
2023-04-12T02:25:18.458Z,6.57
2023-04-12T02:26:19.332Z,6.49
2023-04-12T02:27:19.625Z,6.46
2023-04-12T02:28:20.299Z,6.44
2023-04-12T02:29:20.996Z,6.49
2023-04-12T02:30:21.888Z,6.38
2023-04-12T02:31:22.628Z,6.39
2023-04-12T02:32:22.897Z,6.39
2023-04-12T02:33:23.080Z,6.39
2023-04-12T02:34:23.857Z,6.36
2023-04-12T02:35:24.538Z,6.36
2023-04-12T02:36:25.365Z,6.39
2023-04-12T02:37:26.082Z,6.39
2023-04-12T02:38:26.613Z,6.38
2023-04-12T02:39:27.216Z,6.36
2023-04-12T02:40:27.732Z,6.41
2023-04-12T02:41:28.422Z,6.39
2023-04-12T02:42:29.257Z,6.5
2023-04-12T02:43:29.173Z,6.47
2023-04-12T02:44:30.070Z,6.49
2023-04-12T02:45:30.604Z,6.46
2023-04-12T02:46:31.982Z,6.53
2023-04-12T02:47:31.839Z,6.52
2023-04-12T02:48:31.944Z,6.47
2023-04-12T02:49:34.057Z,6.68
2023-04-12T02:50:33.562Z,6.65
2023-04-12T02:51:33.865Z,6.59
2023-04-12T02:52:35.107Z,6.64
2023-04-12T02:53:35.394Z,6.56
2023-04-12T02:54:35.905Z,6.74
2023-04-12T02:55:37.039Z,6.62
2023-04-12T02:56:37.185Z,6.59
2023-04-12T02:57:37.701Z,6.56
2023-04-12T02:58:38.215Z,6.65
2023-04-12T02:59:39.112Z,6.64
2023-04-12T03:00:40.051Z,6.62
2023-04-12T03:01:40.860Z,6.62
2023-04-12T03:02:41.877Z,6.62
2023-04-12T03:03:42.466Z,6.67
2023-04-12T03:04:42.607Z,6.59
2023-04-12T03:05:42.923Z,6.65
2023-04-12T03:06:43.622Z,6.56
2023-04-12T03:07:44.132Z,6.56
2023-04-12T03:08:44.621Z,6.57
2023-04-12T03:09:45.132Z,6.46
2023-04-12T03:10:45.847Z,6.43
2023-04-12T03:11:46.759Z,6.49
2023-04-12T03:12:47.110Z,6.46
2023-04-12T03:13:47.143Z,6.49
2023-04-12T03:14:47.330Z,6.53
2023-04-12T03:15:48.264Z,6.52
2023-04-12T03:16:49.156Z,6.53
2023-04-12T03:17:49.844Z,6.41
2023-04-12T03:18:51.052Z,6.49
2023-04-12T03:19:51.366Z,6.44
2023-04-12T03:20:53.655Z,6.47
2023-04-12T03:23:53.119Z,6.64
2023-04-12T03:24:54.318Z,6.56
2023-04-12T03:25:54.429Z,6.62
2023-04-12T03:26:55.148Z,6.67
2023-04-12T03:27:56.049Z,6.56
2023-04-12T03:28:56.738Z,6.56
2023-04-12T03:29:56.445Z,6.56
2023-04-12T03:30:57.095Z,6.6
2023-04-12T03:31:58.231Z,6.47
2023-04-12T03:32:58.673Z,6.46
2023-04-12T03:34:00.264Z,6.62
2023-04-12T03:34:59.911Z,6.57
2023-04-12T03:36:00.887Z,6.64
2023-04-12T03:37:01.745Z,6.57
2023-04-12T03:38:02.661Z,6.62
2023-04-12T03:39:03.175Z,6.49
2023-04-12T03:40:03.973Z,6.47
2023-04-12T03:41:04.707Z,6.44
2023-04-12T03:42:05.632Z,6.49
2023-04-12T03:43:10.834Z,6.5
2023-04-12T03:44:11.361Z,6.46
2023-04-12T03:45:11.658Z,6.43
2023-04-12T03:46:12.215Z,6.49
2023-04-12T03:47:13.013Z,6.49
2023-04-12T03:48:13.567Z,6.41
2023-04-12T03:49:13.880Z,6.47
2023-04-12T03:50:18.027Z,6.38
2023-04-12T03:52:15.728Z,6.38
2023-04-12T03:53:16.374Z,6.31
2023-04-12T03:54:17.115Z,6.35
2023-04-12T03:55:17.496Z,6.2
2023-04-12T03:56:18.003Z,6.36
2023-04-12T03:57:18.471Z,6.25
2023-04-12T03:58:19.411Z,6.34
2023-04-12T03:59:20.129Z,6.25
2023-04-12T04:00:20.649Z,6.26
2023-04-12T04:01:20.939Z,6.32
2023-04-12T04:02:22.882Z,6.25
2023-04-12T04:03:23.435Z,6.28
2023-04-12T04:04:24.669Z,6.36
2023-04-12T04:05:23.791Z,6.36
2023-04-12T04:06:24.305Z,6.36
2023-04-12T04:07:25.811Z,6.34
2023-04-12T04:08:26.684Z,6.44
2023-04-12T04:09:27.371Z,6.41
2023-04-12T04:10:27.881Z,6.46
2023-04-12T04:11:28.779Z,6.47
2023-04-12T04:12:29.274Z,6.46
2023-04-12T04:13:29.521Z,6.44
2023-04-12T04:14:30.430Z,6.49
2023-04-12T04:15:30.910Z,6.44
2023-04-12T04:16:31.457Z,6.5
2023-04-12T04:17:32.325Z,6.46
2023-04-12T04:18:32.440Z,6.46
2023-04-12T04:19:33.155Z,6.44
2023-04-12T04:20:33.671Z,6.43
2023-04-12T04:21:34.378Z,6.52
2023-04-12T04:22:35.336Z,6.5
2023-04-12T04:23:35.939Z,6.46
2023-04-12T04:24:36.422Z,6.49
2023-04-12T04:25:37.154Z,6.53
2023-04-12T04:26:38.118Z,6.59
2023-04-12T04:27:39.099Z,6.56
2023-04-12T04:28:41.084Z,6.6
2023-04-12T04:29:41.003Z,6.56
2023-04-12T04:30:40.901Z,6.54
2023-04-12T04:31:41.876Z,6.57
2023-04-12T04:32:42.605Z,6.65
2023-04-12T04:33:42.586Z,6.64
2023-04-12T04:34:43.157Z,6.7
2023-04-12T04:35:44.036Z,6.62
2023-04-12T04:36:43.805Z,6.54
2023-04-12T04:37:44.624Z,6.53
2023-04-12T04:38:45.509Z,6.53
2023-04-12T04:39:46.153Z,6.46
2023-04-12T04:40:46.857Z,6.44
2023-04-12T04:41:47.663Z,6.44
2023-04-12T04:42:48.212Z,6.52
2023-04-12T04:43:49.033Z,6.46
2023-04-12T04:44:49.611Z,6.54
2023-04-12T04:45:50.323Z,6.47
2023-04-12T04:46:50.985Z,6.6
2023-04-12T04:47:52.344Z,6.64
2023-04-12T04:48:52.265Z,6.59
2023-04-12T04:49:53.051Z,6.6
2023-04-12T04:50:53.951Z,6.74
2023-04-12T04:51:54.685Z,6.59
2023-04-12T04:52:55.230Z,6.71
2023-04-12T04:53:55.853Z,6.7
2023-04-12T04:54:56.720Z,6.67
2023-04-12T04:55:56.478Z,6.74
2023-04-12T04:56:57.014Z,6.7
2023-04-12T04:57:57.513Z,6.68
2023-04-12T04:59:00.984Z,6.8
2023-04-12T05:00:59.008Z,6.82
2023-04-12T05:01:59.220Z,6.77
2023-04-12T05:03:00.084Z,6.89
2023-04-12T05:04:01.517Z,6.78
2023-04-12T05:05:01.772Z,6.83
2023-04-12T05:06:02.467Z,6.82
2023-04-12T05:07:02.964Z,6.89
2023-04-12T05:08:03.302Z,6.87
2023-04-12T05:09:04.855Z,6.86
2023-04-12T05:10:04.988Z,6.93
2023-04-12T05:11:05.779Z,6.96
2023-04-12T05:12:06.730Z,6.92
2023-04-12T05:13:07.235Z,6.87
2023-04-12T05:14:11.342Z,6.86
2023-04-12T05:15:12.560Z,6.95
2023-04-12T05:17:09.674Z,6.95
2023-04-12T05:18:10.462Z,6.95
2023-04-12T05:19:11.342Z,6.96
2023-04-12T05:20:12.201Z,6.95
2023-04-12T05:21:12.743Z,7
2023-04-12T05:22:13.247Z,6.97
2023-04-12T05:23:13.787Z,6.95
2023-04-12T05:24:14.190Z,6.96
2023-04-12T05:25:14.874Z,7.01
2023-04-12T05:26:15.623Z,6.93
2023-04-12T05:27:16.175Z,6.97
2023-04-12T05:28:17.310Z,6.96
2023-04-12T05:29:17.243Z,6.96
2023-04-12T05:30:18.227Z,7
2023-04-12T05:31:18.679Z,6.97
2023-04-12T05:32:18.954Z,6.97
2023-04-12T05:33:19.534Z,6.96
2023-04-12T05:34:19.816Z,6.95
2023-04-12T05:35:20.154Z,6.86
2023-04-12T05:36:20.926Z,6.86
2023-04-12T05:37:21.622Z,6.92
2023-04-12T05:38:22.408Z,6.87
2023-04-12T05:39:26.474Z,6.82
2023-04-12T05:41:25.179Z,6.93
2023-04-12T05:42:25.486Z,6.85
2023-04-12T05:43:26.218Z,6.95
2023-04-12T05:44:26.689Z,6.87
2023-04-12T05:45:27.062Z,6.95
2023-04-12T05:46:27.714Z,7
2023-04-12T05:47:28.673Z,7
2023-04-12T05:48:29.338Z,7
2023-04-12T05:49:29.832Z,6.9
2023-04-12T05:50:30.543Z,6.93
2023-04-12T05:51:45.255Z,6.9
2023-04-12T05:53:32.291Z,6.9
2023-04-12T05:54:32.903Z,6.89
2023-04-12T05:55:36.658Z,6.96
2023-04-12T05:56:34.593Z,7.01
2023-04-12T05:57:35.539Z,7.04
2023-04-12T05:58:36.251Z,6.97
2023-04-12T05:59:37.005Z,7.01
2023-04-12T06:00:37.711Z,7.01
2023-04-12T06:01:38.287Z,7.14
2023-04-12T06:02:39.538Z,7.03
2023-04-12T06:03:40.545Z,7.11
2023-04-12T06:04:55.371Z,7.21
2023-04-12T06:06:41.385Z,7.21
2023-04-12T06:07:41.671Z,7.14
2023-04-12T06:08:42.586Z,7.22
2023-04-12T06:09:43.106Z,7.22
2023-04-12T06:10:43.609Z,7.28
2023-04-12T06:11:44.350Z,7.25
2023-04-12T06:12:45.203Z,7.19
2023-04-12T06:13:46.148Z,7.15
2023-04-12T06:14:47.430Z,7.22
2023-04-12T06:15:47.540Z,7.19
2023-04-12T06:16:48.015Z,7.25
2023-04-12T06:17:48.704Z,7.25
2023-04-12T06:18:48.824Z,7.29
2023-04-12T06:19:49.752Z,7.26
2023-04-12T06:20:50.487Z,7.26
2023-04-12T06:21:50.970Z,7.28
2023-04-12T06:22:51.492Z,7.32
2023-04-12T06:23:52.481Z,7.36
2023-04-12T06:24:53.100Z,7.26
2023-04-12T06:25:53.665Z,7.36
2023-04-12T06:26:54.615Z,7.4
2023-04-12T06:27:55.322Z,7.31
2023-04-12T06:28:56.657Z,7.33
2023-04-12T06:29:56.727Z,7.37
2023-04-12T06:30:57.700Z,7.4
2023-04-12T06:31:58.129Z,7.32
2023-04-12T06:32:58.883Z,7.36
2023-04-12T06:33:59.526Z,7.33
2023-04-12T06:34:59.752Z,7.36
2023-04-12T06:36:00.692Z,7.41
2023-04-12T06:37:00.548Z,7.46
2023-04-12T06:38:01.255Z,7.46
2023-04-12T06:39:02.436Z,7.44
2023-04-12T06:41:02.648Z,7.43
2023-04-12T06:42:03.230Z,7.46
2023-04-12T06:43:03.933Z,7.44
2023-04-12T06:44:05.032Z,7.43
2023-04-12T06:45:05.761Z,7.41
2023-04-12T06:46:06.451Z,7.48
2023-04-12T06:47:07.604Z,7.44
2023-04-12T06:48:07.552Z,7.29
2023-04-12T06:49:08.304Z,7.37
2023-04-12T06:50:09.016Z,7.32
2023-04-12T06:51:09.749Z,7.47
2023-04-12T06:52:10.267Z,7.44
2023-04-12T06:53:11.398Z,7.51
2023-04-12T06:54:11.119Z,7.47
2023-04-12T06:55:12.496Z,7.48
2023-04-12T06:56:13.435Z,7.58
2023-04-12T06:57:13.635Z,7.51
2023-04-12T06:58:14.565Z,7.55
2023-04-12T06:59:14.868Z,7.55
2023-04-12T07:00:15.990Z,7.61
2023-04-12T07:01:15.939Z,7.56
2023-04-12T07:02:16.215Z,7.58
2023-04-12T07:03:17.342Z,7.51
2023-04-12T07:04:18.329Z,7.56
2023-04-12T07:05:18.516Z,7.61
2023-04-12T07:06:30.260Z,7.61
2023-04-12T07:08:20.021Z,7.67
2023-04-12T07:09:20.486Z,7.69
2023-04-12T07:10:21.263Z,7.69
2023-04-12T07:11:27.713Z,7.7
2023-04-12T07:13:22.984Z,7.69
2023-04-12T07:14:23.680Z,7.72
2023-04-12T07:15:25.120Z,7.67
2023-04-12T07:16:26.129Z,7.64
2023-04-12T07:17:26.009Z,7.7
2023-04-12T07:18:27.246Z,7.67
2023-04-12T07:19:27.957Z,7.7
2023-04-12T07:20:28.651Z,7.62
2023-04-12T07:21:28.985Z,7.67
2023-04-12T07:22:29.907Z,7.67
2023-04-12T07:23:30.561Z,7.74
2023-04-12T07:24:31.552Z,7.66
2023-04-12T07:25:32.153Z,7.62
2023-04-12T07:26:32.628Z,7.62
2023-04-12T07:27:33.414Z,7.62
2023-04-12T07:28:34.494Z,7.7
2023-04-12T07:29:35.612Z,7.61
2023-04-12T07:30:36.533Z,7.66
2023-04-12T07:31:37.343Z,7.77
2023-04-12T07:32:38.110Z,7.72
2023-04-12T07:33:43.223Z,7.72
2023-04-12T07:34:39.689Z,7.81
2023-04-12T07:35:40.864Z,7.87
2023-04-12T07:36:41.905Z,7.8
2023-04-12T07:37:42.611Z,7.81
2023-04-12T07:38:43.316Z,7.84
2023-04-12T07:39:44.250Z,7.8
2023-04-12T07:40:49.225Z,7.8
2023-04-12T07:41:45.997Z,7.7
2023-04-12T07:42:46.980Z,7.69
2023-04-12T07:43:47.756Z,7.67
2023-04-12T07:44:48.695Z,7.77
2023-04-12T07:45:50.170Z,7.8
2023-04-12T07:46:50.176Z,7.8
2023-04-12T07:47:51.030Z,7.81
2023-04-12T07:48:51.170Z,7.93
2023-04-12T07:49:51.691Z,7.83
2023-04-12T07:50:52.614Z,7.87
2023-04-12T07:51:53.326Z,7.88
2023-04-12T07:52:54.031Z,7.85
2023-04-12T07:53:54.523Z,7.83
2023-04-12T07:54:55.131Z,7.91
2023-04-12T07:55:55.773Z,7.93
2023-04-12T07:56:56.523Z,7.93
2023-04-12T07:57:57.592Z,7.99
2023-04-12T07:58:58.737Z,8.05
2023-04-12T07:59:59.325Z,8.09
2023-04-12T08:01:01.940Z,8.11
2023-04-12T08:02:01.131Z,8.16
2023-04-12T08:03:02.102Z,8.18
2023-04-12T08:04:03.808Z,8.09
2023-04-12T08:05:03.031Z,8.09
2023-04-12T08:06:04.120Z,8.08
2023-04-12T08:07:05.210Z,8.13
2023-04-12T08:08:05.350Z,8.08
2023-04-12T08:09:05.254Z,8.05
2023-04-12T08:10:06.176Z,8.01
2023-04-12T08:11:07.317Z,8.09
2023-04-12T08:12:07.526Z,8.14
2023-04-12T08:13:08.352Z,8.17
2023-04-12T08:14:08.293Z,8.13
2023-04-12T08:15:08.989Z,8.06
2023-04-12T08:16:09.800Z,8.16
2023-04-12T08:17:10.340Z,8.09
2023-04-12T08:18:11.585Z,8.03
2023-04-12T08:19:11.714Z,8.18
2023-04-12T08:20:12.672Z,8.2
2023-04-12T08:21:13.562Z,8.13
2023-04-12T08:22:14.341Z,8.26
2023-04-12T08:23:14.628Z,8.31
2023-04-12T08:24:15.565Z,8.27
2023-04-12T08:25:16.368Z,8.31
2023-04-12T08:26:16.967Z,8.36
2023-04-12T08:27:17.888Z,8.44
2023-04-12T08:28:17.872Z,8.38
2023-04-12T08:29:18.883Z,8.46
2023-04-12T08:30:19.000Z,8.39
2023-04-12T08:31:19.371Z,8.53
2023-04-12T08:32:19.098Z,8.53
2023-04-12T08:33:20.354Z,8.57
2023-04-12T08:34:20.477Z,8.61
2023-04-12T08:35:21.044Z,8.54
2023-04-12T08:36:21.057Z,8.6
2023-04-12T08:37:21.381Z,8.64
2023-04-12T08:38:45.361Z,8.6
2023-04-12T08:39:22.545Z,8.6
2023-04-12T08:40:22.824Z,8.61
2023-04-12T08:41:23.769Z,8.59
2023-04-12T08:42:23.675Z,8.52
2023-04-12T08:43:24.627Z,8.59
2023-04-12T08:44:25.198Z,8.61
2023-04-12T08:45:26.110Z,8.59
2023-04-12T08:46:27.326Z,8.64
2023-04-12T08:47:27.304Z,8.75
2023-04-12T08:48:28.161Z,8.61
2023-04-12T08:49:29.058Z,8.68
2023-04-12T08:50:30.206Z,8.57
2023-04-12T08:51:31.118Z,8.64
2023-04-12T08:52:31.888Z,8.56
2023-04-12T08:53:32.809Z,8.66
2023-04-12T08:54:32.934Z,8.63
2023-04-12T08:55:33.531Z,8.75
2023-04-12T08:56:34.208Z,8.81
2023-04-12T08:57:37.215Z,8.78
2023-04-12T08:59:35.935Z,8.96
2023-04-12T09:00:36.483Z,9.05
2023-04-12T09:01:37.301Z,9.09
2023-04-12T09:02:38.611Z,9.31
2023-04-12T09:03:40.127Z,9.33
2023-04-12T09:05:38.761Z,9.48
2023-04-12T09:06:39.278Z,9.62
2023-04-12T09:07:40.456Z,9.74
2023-04-12T09:08:40.968Z,9.95
2023-04-12T09:09:41.964Z,10.12
2023-04-12T09:10:42.397Z,10.24
2023-04-12T09:11:43.353Z,10.49
2023-04-12T09:12:43.946Z,10.62
2023-04-12T09:13:44.352Z,10.58
2023-04-12T09:14:45.097Z,10.77
2023-04-12T09:15:45.830Z,10.87
2023-04-12T09:16:46.599Z,10.95
2023-04-12T09:17:46.583Z,11.15
2023-04-12T09:18:47.199Z,11.45
2023-04-12T09:19:47.078Z,11.91
2023-04-12T09:20:47.820Z,12.39
2023-04-12T09:21:48.754Z,12.69
2023-04-12T09:22:49.318Z,13.05
2023-04-12T09:23:49.849Z,13.3
2023-04-12T09:24:50.107Z,13.43
2023-04-12T09:25:51.270Z,13.42
2023-04-12T09:26:52.118Z,13.37
2023-04-12T09:27:53.070Z,13.61
2023-04-12T09:28:53.030Z,13.82
2023-04-12T09:29:54.093Z,14.12
2023-04-12T09:30:54.972Z,14.37
2023-04-12T09:31:55.676Z,14.45
2023-04-12T09:32:56.286Z,14.7
2023-04-12T09:33:57.324Z,14.68
2023-04-12T09:34:57.609Z,14.66
2023-04-12T09:35:58.427Z,14.81
2023-04-12T09:36:59.268Z,14.9
2023-04-12T09:38:00.313Z,14.96
2023-04-12T09:39:01.125Z,14.94
2023-04-12T09:40:01.892Z,14.74
2023-04-12T09:41:02.238Z,14.81
2023-04-12T09:42:02.794Z,14.68
2023-04-12T09:43:02.974Z,14.58
2023-04-12T09:44:04.485Z,14.59
2023-04-12T09:45:04.094Z,14.62
2023-04-12T09:46:05.012Z,14.45
2023-04-12T09:47:05.156Z,14.4
2023-04-12T09:48:05.397Z,14.34
2023-04-12T09:49:05.433Z,14.08
2023-04-12T09:50:05.999Z,13.98
2023-04-12T09:51:07.334Z,13.79
2023-04-12T09:52:07.488Z,13.8
2023-04-12T09:53:08.690Z,13.7
2023-04-12T09:54:08.495Z,13.4
2023-04-12T09:55:09.646Z,13.23
2023-04-12T09:56:10.411Z,13.24
2023-04-12T09:57:11.077Z,13.24
2023-04-12T09:58:11.244Z,13.01
2023-04-12T09:59:11.118Z,12.91
2023-04-12T10:00:11.730Z,12.81
2023-04-12T10:01:12.389Z,12.81
2023-04-12T10:02:13.237Z,12.81
2023-04-12T10:03:13.800Z,12.83
2023-04-12T10:04:14.242Z,12.83
2023-04-12T10:05:14.438Z,12.87
2023-04-12T10:06:14.622Z,12.93
2023-04-12T10:07:15.557Z,13.05
2023-04-12T10:08:15.471Z,13.21
2023-04-12T10:09:16.292Z,13.24
2023-04-12T10:10:17.338Z,13.46
2023-04-12T10:11:17.971Z,13.47
2023-04-12T10:12:17.728Z,13.54
2023-04-12T10:13:18.293Z,13.67
2023-04-12T10:14:23.150Z,13.68
2023-04-12T10:16:21.175Z,13.89
2023-04-12T10:17:21.338Z,13.98
2023-04-12T10:18:21.713Z,13.87
2023-04-12T10:19:21.846Z,13.91
2023-04-12T10:20:22.044Z,14.01
2023-04-12T10:21:21.876Z,14.04
2023-04-12T10:22:22.662Z,14
2023-04-12T10:23:23.640Z,14.05
2023-04-12T10:24:24.221Z,14
2023-04-12T10:25:25.549Z,14.12
2023-04-12T10:26:25.975Z,14.15
2023-04-12T10:27:25.978Z,14.18
2023-04-12T10:28:26.720Z,14.08
2023-04-12T10:29:27.724Z,13.95
2023-04-12T10:30:27.649Z,14
2023-04-12T10:31:28.659Z,14.04
2023-04-12T10:32:29.245Z,14.18
2023-04-12T10:33:29.435Z,14.26
2023-04-12T10:34:29.484Z,14.33
2023-04-12T10:35:29.867Z,14.19
2023-04-12T10:36:30.735Z,14.2
2023-04-12T10:37:31.272Z,14.25
2023-04-12T10:38:36.196Z,14.26
2023-04-12T10:39:33.101Z,14.26
2023-04-12T10:40:34.414Z,14.22
2023-04-12T10:41:35.058Z,14.26
2023-04-12T10:42:36.144Z,14.18
2023-04-12T10:43:36.598Z,14.22
2023-04-12T10:44:37.772Z,14.3
2023-04-12T10:45:37.618Z,14.31
2023-04-12T10:46:39.484Z,14.36
2023-04-12T10:48:39.850Z,14.41
2023-04-12T10:49:40.677Z,14.43
2023-04-12T10:50:41.781Z,14.36
2023-04-12T10:51:42.772Z,14.38
2023-04-12T10:52:43.523Z,14.45
2023-04-12T10:53:44.540Z,14.38
2023-04-12T10:54:44.715Z,14.48
2023-04-12T10:55:45.739Z,14.44
2023-04-12T10:56:46.284Z,14.43
2023-04-12T10:57:46.799Z,14.43
2023-04-12T10:58:47.434Z,14.36
2023-04-12T10:59:53.375Z,14.36
2023-04-12T11:01:50.886Z,14.33
2023-04-12T11:02:50.754Z,14.34
2023-04-12T11:03:51.584Z,14.19
2023-04-12T11:04:51.711Z,14.2
2023-04-12T11:05:51.780Z,14.19
2023-04-12T11:06:54.412Z,14.31
2023-04-12T11:08:53.982Z,14.25
2023-04-12T11:09:54.560Z,14.38
2023-04-12T11:10:55.520Z,14.4
2023-04-12T11:11:56.396Z,14.34
2023-04-12T11:12:56.851Z,14.43
2023-04-12T11:13:57.609Z,14.45
2023-04-12T11:14:57.936Z,14.43
2023-04-12T11:15:58.137Z,14.48
2023-04-12T11:16:58.287Z,14.44
2023-04-12T11:17:59.341Z,14.41
2023-04-12T11:19:00.096Z,14.43
2023-04-12T11:20:01.125Z,14.36
2023-04-12T11:21:02.253Z,14.48
2023-04-12T11:22:02.884Z,14.44
2023-04-12T11:23:03.890Z,14.45
2023-04-12T11:24:04.238Z,14.55
2023-04-12T11:25:04.041Z,14.55
2023-04-12T11:26:04.863Z,14.66
2023-04-12T11:27:05.362Z,14.71
2023-04-12T11:28:28.424Z,14.82
2023-04-12T11:29:06.097Z,14.9
2023-04-12T11:30:06.970Z,15.05
2023-04-12T11:31:07.092Z,15.11
2023-04-12T11:32:07.441Z,15.23
2023-04-12T11:33:08.714Z,15.29
2023-04-12T11:34:08.712Z,15.32
2023-04-12T11:35:09.893Z,15.48
2023-04-12T11:36:10.454Z,15.47
2023-04-12T11:37:11.473Z,15.52
2023-04-12T11:38:11.403Z,15.41
2023-04-12T11:39:12.534Z,15.52
2023-04-12T11:40:12.558Z,15.52
2023-04-12T11:41:13.520Z,15.57
2023-04-12T11:42:14.292Z,15.69
2023-04-12T11:43:14.941Z,15.66
2023-04-12T11:44:16.066Z,15.78
2023-04-12T11:45:23.033Z,15.8
2023-04-12T11:47:17.854Z,15.92
2023-04-12T11:48:18.871Z,15.9
2023-04-12T11:49:19.602Z,16.17
2023-04-12T11:50:20.354Z,16.41
2023-04-12T11:51:20.896Z,16.46
2023-04-12T11:52:21.625Z,16.55
2023-04-12T11:53:22.750Z,16.61
2023-04-12T11:54:23.297Z,16.74
2023-04-12T11:55:23.823Z,16.74
2023-04-12T11:56:24.391Z,16.82
2023-04-12T11:57:25.541Z,16.82
2023-04-12T11:58:25.807Z,16.82
2023-04-12T11:59:26.529Z,17.05
2023-04-12T12:00:27.493Z,17.01
2023-04-12T12:01:28.292Z,16.98
2023-04-12T12:02:40.997Z,16.95
2023-04-12T12:03:30.847Z,17.01
2023-04-12T12:04:31.743Z,17.01
2023-04-12T12:05:32.486Z,16.95
2023-04-12T12:06:33.535Z,16.8
2023-04-12T12:07:33.143Z,16.86
2023-04-12T12:08:33.122Z,16.76
2023-04-12T12:09:34.062Z,16.77
2023-04-12T12:11:08.150Z,16.69
2023-04-12T12:12:36.246Z,16.62
2023-04-12T12:13:36.997Z,16.57
2023-04-12T12:14:37.866Z,16.62
2023-04-12T12:15:38.878Z,16.58
2023-04-12T12:16:39.284Z,16.41
2023-04-12T12:17:39.117Z,16.32
2023-04-12T12:18:40.142Z,16.16
2023-04-12T12:19:40.336Z,16.16
2023-04-12T12:20:40.658Z,16.03
2023-04-12T12:21:41.648Z,15.94
2023-04-12T12:22:42.561Z,15.96
2023-04-12T12:23:43.579Z,15.9
2023-04-12T12:24:47.977Z,15.69
2023-04-12T12:26:45.428Z,15.67
2023-04-12T12:27:46.662Z,15.67
2023-04-12T12:28:46.736Z,15.7
2023-04-12T12:29:47.650Z,15.63
2023-04-12T12:30:47.581Z,15.62
2023-04-12T12:31:49.230Z,15.62
2023-04-12T12:32:48.811Z,15.63
2023-04-12T12:34:09.909Z,15.63
2023-04-12T12:35:50.370Z,15.67
2023-04-12T12:36:51.368Z,15.69
2023-04-12T12:37:52.285Z,15.65
2023-04-12T12:38:52.393Z,15.67
2023-04-12T12:39:53.503Z,15.69
2023-04-12T12:40:54.404Z,15.65
2023-04-12T12:41:55.338Z,15.63
2023-04-12T12:42:56.152Z,15.59
2023-04-12T12:43:57.600Z,15.59
2023-04-12T12:44:57.754Z,15.62
2023-04-12T12:45:58.641Z,15.6
2023-04-12T12:47:15.053Z,15.6
2023-04-12T12:49:00.036Z,15.67
2023-04-12T12:50:00.669Z,15.62
2023-04-12T12:51:01.165Z,15.78
2023-04-12T12:52:01.707Z,15.83
2023-04-12T12:53:02.576Z,15.75
2023-04-12T12:54:03.802Z,15.83
2023-04-12T12:55:04.316Z,15.72
2023-04-12T12:56:04.427Z,15.63
2023-04-12T12:57:04.809Z,15.62
2023-04-12T12:58:13.198Z,15.6
2023-04-12T13:00:06.562Z,15.6
2023-04-12T13:01:06.581Z,15.51
2023-04-12T13:02:08.117Z,15.55
2023-04-12T13:03:08.458Z,15.44
2023-04-12T13:04:08.966Z,15.3
2023-04-12T13:05:12.223Z,15.23
2023-04-12T13:06:10.185Z,15.17
2023-04-12T13:07:11.136Z,15.14
2023-04-12T13:08:11.844Z,15.08
2023-04-12T13:09:12.426Z,15.04
2023-04-12T13:10:13.243Z,14.94
2023-04-12T13:11:13.057Z,15
2023-04-12T13:12:14.189Z,15.05
2023-04-12T13:13:15.157Z,15.04
2023-04-12T13:14:15.862Z,15
2023-04-12T13:15:28.306Z,15.04
2023-04-12T13:17:17.892Z,15.07
2023-04-12T13:18:18.846Z,15.04
2023-04-12T13:19:19.322Z,15.14
2023-04-12T13:20:20.251Z,15.11
2023-04-12T13:21:20.245Z,15.19
2023-04-12T13:22:20.961Z,15.15
2023-04-12T13:23:21.271Z,15.35
2023-04-12T13:24:22.499Z,15.32
2023-04-12T13:25:23.056Z,15.32
2023-04-12T13:26:23.990Z,15.44
2023-04-12T13:27:24.684Z,15.44
2023-04-12T13:28:25.275Z,15.43
2023-04-12T13:29:25.945Z,15.48
2023-04-12T13:30:26.432Z,15.39
2023-04-12T13:31:26.857Z,15.54
2023-04-12T13:32:26.884Z,15.5
2023-04-12T13:33:28.392Z,15.62
2023-04-12T13:34:28.156Z,15.52
2023-04-12T13:35:29.085Z,15.51
2023-04-12T13:36:29.818Z,15.6
2023-04-12T13:37:30.356Z,15.51
2023-04-12T13:38:31.279Z,15.59
2023-04-12T13:39:33.599Z,15.67
2023-04-12T13:40:32.536Z,15.62
2023-04-12T13:41:32.650Z,15.65
2023-04-12T13:42:32.865Z,15.65
2023-04-12T13:43:32.801Z,15.73
2023-04-12T13:44:33.704Z,15.69
2023-04-12T13:45:34.985Z,15.62
2023-04-12T13:46:35.182Z,15.54